createdAt,value
2022-08-05T00:02:07.493Z,29
2022-08-05T00:07:21.901Z,29
2022-08-05T00:13:00.241Z,30
2022-08-05T00:18:02.514Z,30
2022-08-05T00:23:12.688Z,30
2022-08-05T00:28:14.298Z,30
2022-08-05T00:34:42.721Z,30
2022-08-05T00:40:09.344Z,31
2022-08-05T00:50:12.015Z,30
2022-08-05T00:55:15.108Z,30
2022-08-05T01:00:17.024Z,31
2022-08-05T01:05:18.519Z,30
2022-08-05T01:10:19.962Z,31
2022-08-05T01:20:28.401Z,30
2022-08-05T01:25:40.329Z,30
2022-08-05T01:30:46.622Z,31
2022-08-05T01:35:55.209Z,30
2022-08-05T01:40:59.046Z,31
2022-08-05T01:46:07.029Z,31
2022-08-05T01:51:17.644Z,31
2022-08-05T01:58:08.994Z,30
2022-08-05T02:03:32.186Z,30
2022-08-05T02:08:40.802Z,30
2022-08-05T02:13:56.486Z,30
2022-08-05T02:18:57.923Z,31
2022-08-05T02:23:59.410Z,31
2022-08-05T02:29:00.864Z,31
2022-08-05T02:34:05.116Z,31
2022-08-05T02:39:08.598Z,30
2022-08-05T02:44:12.348Z,30
2022-08-05T02:49:15.011Z,31
2022-08-05T02:54:34.752Z,29
2022-08-05T02:59:48.025Z,31
2022-08-05T03:04:53.449Z,29
2022-08-05T03:09:54.751Z,31
2022-08-05T03:14:56.166Z,31
2022-08-05T03:19:58.505Z,30
2022-08-05T03:25:02.149Z,30
2022-08-05T03:30:33.869Z,34
2022-08-05T03:35:40.614Z,31
2022-08-05T03:40:44.991Z,30
2022-08-05T03:45:55.334Z,31
2022-08-05T03:50:59.240Z,30
2022-08-05T04:02:45.161Z,30
2022-08-05T04:07:57.663Z,30
2022-08-05T04:13:00.352Z,32
2022-08-05T04:18:06.586Z,31
2022-08-05T04:23:08.078Z,31
2022-08-05T04:28:13.978Z,31
2022-08-05T04:33:16.180Z,36
2022-08-05T04:38:22.023Z,31
2022-08-05T04:43:46.711Z,32
2022-08-05T04:48:53.532Z,31
2022-08-05T04:53:55.817Z,31
2022-08-05T04:58:57.264Z,30
2022-08-05T05:08:59.445Z,31
2022-08-05T05:14:01.900Z,31
2022-08-05T05:19:18.035Z,31
2022-08-05T05:24:20.692Z,31
2022-08-05T05:29:22.017Z,32
2022-08-05T05:44:36.217Z,33
2022-08-05T05:49:37.871Z,34
2022-08-05T05:54:50.706Z,31
2022-08-05T05:59:52.873Z,32
2022-08-05T06:04:54.178Z,31
2022-08-05T06:15:00.598Z,31
2022-08-05T06:20:01.894Z,30
2022-08-05T06:25:24.764Z,33
2022-08-05T06:31:01.399Z,31
2022-08-05T06:36:12.674Z,33
2022-08-05T06:41:17.379Z,32
2022-08-05T06:46:18.813Z,31
2022-08-05T06:51:22.772Z,34
2022-08-05T06:56:27.081Z,32
2022-08-05T07:06:29.393Z,34
2022-08-05T07:11:30.833Z,32
2022-08-05T07:17:57.520Z,33
2022-08-05T07:23:08.367Z,33
2022-08-05T07:28:17.330Z,34
2022-08-05T07:33:18.704Z,33
2022-08-05T07:38:26.514Z,33
2022-08-05T07:43:34.132Z,34
2022-08-05T07:49:01.252Z,34
2022-08-05T07:54:06.246Z,32
2022-08-05T07:59:09.656Z,34
2022-08-05T08:04:11.023Z,34
2022-08-05T08:09:12.545Z,33
2022-08-05T08:14:17.536Z,32
2022-08-05T08:19:38.076Z,32
2022-08-05T08:25:26.634Z,33
2022-08-05T08:30:40.968Z,31
2022-08-05T08:35:52.273Z,32
2022-08-05T08:45:55.054Z,31
2022-08-05T08:51:04.424Z,31
2022-08-05T08:56:27.044Z,32
2022-08-05T09:01:28.851Z,31
2022-08-05T09:06:30.887Z,31
2022-08-05T09:11:52.251Z,31
2022-08-05T09:16:55.503Z,32
2022-08-05T09:22:18.558Z,34
2022-08-05T09:28:03.667Z,32
2022-08-05T09:33:07.634Z,31
2022-08-05T09:38:11.757Z,31
2022-08-05T09:43:18.111Z,31
2022-08-05T09:48:21.644Z,31
2022-08-05T09:53:26.265Z,32
2022-08-05T09:58:55.007Z,31
2022-08-05T10:03:57.068Z,33
2022-08-05T10:09:00.708Z,33
2022-08-05T10:19:08.660Z,33
2022-08-05T10:24:11.572Z,32
2022-08-05T10:34:13.977Z,31
2022-08-05T10:39:24.772Z,33
2022-08-05T10:44:59.803Z,33
2022-08-05T10:50:20.337Z,33
2022-08-05T10:55:38.662Z,33
2022-08-05T11:06:08.333Z,32
2022-08-05T11:11:16.658Z,32
2022-08-05T11:16:18.167Z,31
2022-08-05T11:21:22.994Z,31
2022-08-05T11:26:27.882Z,33
2022-08-05T11:31:53.849Z,35
2022-08-05T11:36:59.237Z,31
2022-08-05T11:42:02.488Z,32
2022-08-05T11:47:10.391Z,31
2022-08-05T11:52:15.340Z,31
2022-08-05T11:57:25.798Z,31
2022-08-05T12:02:31.101Z,30
2022-08-05T12:08:02.980Z,30
2022-08-05T12:13:14.653Z,31
2022-08-05T12:23:19.478Z,31
2022-08-05T12:28:20.913Z,32
2022-08-05T12:33:36.223Z,31
2022-08-05T12:38:39.553Z,32
2022-08-05T12:43:41.239Z,33
2022-08-05T12:48:42.672Z,31
2022-08-05T12:53:44.656Z,31
2022-08-05T12:59:02.378Z,32
2022-08-05T13:04:04.327Z,31
2022-08-05T13:09:09.007Z,34
2022-08-05T13:14:14.711Z,33
2022-08-05T13:19:16.157Z,33
2022-08-05T13:24:27.429Z,31
2022-08-05T13:29:59.671Z,34
2022-08-05T13:35:43.526Z,33
2022-08-05T13:40:52.312Z,32
2022-08-05T13:45:53.666Z,33
2022-08-05T13:50:55.366Z,31
2022-08-05T13:56:01.769Z,33
2022-08-05T14:01:03.288Z,32
2022-08-05T14:11:20.084Z,33
2022-08-05T14:16:21.816Z,35
2022-08-05T14:21:23.927Z,34
2022-08-05T14:27:17.882Z,35
2022-08-05T14:32:26.781Z,35
2022-08-05T14:37:45.730Z,35
2022-08-05T14:42:49.544Z,35
2022-08-05T14:52:53.741Z,35
2022-08-05T14:57:58.940Z,34
2022-08-05T15:03:01.344Z,36
2022-08-05T15:08:12.346Z,35
2022-08-05T15:13:19.230Z,36
2022-08-05T15:18:29.813Z,36
2022-08-05T15:23:31.561Z,37
2022-08-05T15:28:34.176Z,37
2022-08-05T15:34:06.099Z,36
2022-08-05T15:40:41.864Z,35
2022-08-05T15:46:21.611Z,38
2022-08-05T15:52:04.642Z,37
2022-08-05T15:57:17.710Z,36
2022-08-05T16:02:19.610Z,36
2022-08-05T16:07:26.353Z,38
2022-08-05T16:12:30.892Z,37
2022-08-05T16:17:32.562Z,37
2022-08-05T16:22:34.646Z,34
2022-08-05T16:27:47.641Z,37
2022-08-05T16:33:06.556Z,37
2022-08-05T16:38:16.512Z,33
2022-08-05T16:43:26.183Z,33
2022-08-05T16:48:33.696Z,34
2022-08-05T16:54:03.706Z,32
2022-08-05T16:59:14.648Z,33
2022-08-05T17:04:18.605Z,34
2022-08-05T17:14:22.497Z,34
2022-08-05T17:19:36.049Z,32
2022-08-05T17:24:39.024Z,33
2022-08-05T17:29:42.273Z,33
2022-08-05T17:39:45.045Z,32
2022-08-05T17:44:52.392Z,31
2022-08-05T17:54:55.077Z,32
2022-08-05T17:59:59.814Z,30
2022-08-05T18:05:07.817Z,30
2022-08-05T18:10:10.243Z,30
2022-08-05T18:15:12.095Z,30
2022-08-05T18:20:14.916Z,31
2022-08-05T18:25:16.915Z,31
2022-08-05T18:30:18.299Z,30
2022-08-05T18:35:19.747Z,30
2022-08-05T18:41:51.157Z,29
2022-08-05T18:46:58.856Z,30
2022-08-05T18:52:03.757Z,30
2022-08-05T18:57:09.785Z,30
2022-08-05T19:02:27.327Z,30
2022-08-05T19:07:29.628Z,29
2022-08-05T19:12:31.054Z,29
2022-08-05T19:17:33.705Z,29
2022-08-05T19:23:22.942Z,30
2022-08-05T19:29:07.944Z,29
2022-08-05T19:34:10.640Z,29
2022-08-05T19:39:12.125Z,30
2022-08-05T19:44:18.664Z,31
2022-08-05T19:49:20.365Z,31
2022-08-05T19:54:28.567Z,31
2022-08-05T19:59:51.389Z,30
2022-08-05T20:04:58.646Z,29
2022-08-05T20:10:00.861Z,31
2022-08-05T20:15:02.290Z,32
2022-08-05T20:20:07.655Z,29
2022-08-05T20:25:10.610Z,29
2022-08-05T20:30:13.391Z,29
2022-08-05T20:35:14.861Z,29
2022-08-05T20:40:16.280Z,29
2022-08-05T20:45:19.378Z,29
2022-08-05T20:50:22.516Z,29
2022-08-05T20:55:54.593Z,29
2022-08-05T21:00:57.872Z,29
2022-08-05T21:05:59.588Z,29
2022-08-05T21:11:01.031Z,29
2022-08-05T21:16:10.419Z,28
2022-08-05T21:21:11.850Z,29
2022-08-05T21:26:14.514Z,29
2022-08-05T21:31:16.678Z,30
2022-08-05T21:36:19.009Z,28
2022-08-05T21:41:32.817Z,29
2022-08-05T21:52:16.839Z,28
2022-08-05T21:57:31.792Z,29
2022-08-05T22:02:33.349Z,29
2022-08-05T22:12:35.813Z,28
2022-08-05T22:17:48.649Z,29
2022-08-05T22:23:01.121Z,29
2022-08-05T22:28:05.170Z,28
2022-08-05T22:33:15.110Z,29
2022-08-05T22:43:36.385Z,29
2022-08-05T22:48:38.269Z,29
2022-08-05T22:53:40.133Z,29
2022-08-05T22:58:43.706Z,28
2022-08-05T23:03:57.494Z,29
2022-08-05T23:09:14.144Z,29
2022-08-05T23:14:31.891Z,29
2022-08-05T23:19:37.121Z,28
2022-08-05T23:24:48.331Z,28
2022-08-05T23:34:53.233Z,28
2022-08-05T23:39:54.905Z,30
2022-08-05T23:44:56.571Z,28
2022-08-05T23:49:58.435Z,29
2022-08-05T23:55:00.528Z,29
